Endeavour — C6BE4 — position and weather

sailwx.info

Track history (hours):
 
Tides and Currents Weather Stations Pressure Air Temp Water Temp Dewpoint Dewpoint Depression Visibility Wind Speed Wind Dir Waves Ship Positions

Endeavour

Operator: Lindblad Expeditions

Last reported at 2017-Apr-04 07:31 UTC. Time now 2017-Apr-24 11:18 UTC.
Position S 34°26' E 018°12'.
Warning: this ship's position is 20 days out of date.

Length 190 m; draft 11.8 m.

Type: Cargo ship. MMSI: 311000239.

Date/timePositionNaut miles runAvg speedWind from/ knotsBaromVisibWave heightAir tempDewpointWater temp
2017-Apr-04 07:31S 34°26' E 018°12'312.6
2017-Apr-04 07:15S 34°23' E 018°09'312.4
2017-Apr-04 07:00S 34°21' E 018°07'612.3
2017-Apr-04 06:30S 34°15' E 018°03'1012.0
2017-Apr-04 05:42S 34°06' E 018°01'312.2
2017-Apr-04 05:28S 34°03' E 018°01'712.9
2017-Apr-04 04:55S 33°56' E 017°59'  
2017-Mar-30 20:28S 33°07' E 017°39'2 0.8
2017-Mar-30 18:30S 33°09' E 017°39'1 0.8
2017-Mar-30 17:27S 33°09' E 017°39'910.0
2017-Mar-30 16:33S 33°11' E 017°49'1712.7
2017-Mar-30 15:11S 33°28' E 017°56'812.7
2017-Mar-30 14:33S 33°35' E 017°51'1211.9
2017-Mar-30 13:33S 33°47' E 017°50'1212.4
2017-Mar-30 12:33S 33°58' E 017°54'7311.7
2017-Mar-30 06:19S 34°52' E 018°53'  
2017-Mar-28 02:04S 30°54' E 030°56'713.2
2017-Mar-28 01:34S 30°47' E 030°59'1313.0
2017-Mar-28 00:33S 30°35' E 031°05'1312.6
2017-Mar-27 23:33S 30°24' E 031°11'1212.0
2017-Mar-27 22:33S 30°13' E 031°16'1212.5
2017-Mar-27 21:33S 30°01' E 031°22'9 9.5
2017-Mar-27 20:33S 29°53' E 031°18'1212.3
2017-Mar-27 19:33S 29°51' E 031°04'2 2.3
2017-Mar-27 18:33S 29°52' E 031°02'0 0.0
2017-Mar-27 17:33S 29°52' E 031°02'0 0.0
2017-Mar-27 16:33S 29°52' E 031°02'0 0.0
2017-Mar-27 15:33S 29°52' E 031°02'0 0.0
2017-Mar-27 14:33S 29°52' E 031°02'0 0.0
2017-Mar-27 13:33S 29°52' E 031°02'0 0.0
2017-Mar-27 12:30S 29°52' E 031°02'0 0.0
2017-Mar-27 11:30S 29°52' E 031°02'0 0.0
2017-Mar-27 10:33S 29°52' E 031°02'0 0.0
2017-Mar-27 09:33S 29°52' E 031°02'0 0.0
2017-Mar-27 08:33S 29°52' E 031°02'0 0.0
2017-Mar-27 07:33S 29°52' E 031°02'0 0.0
2017-Mar-27 06:33S 29°52' E 031°02'0 0.0
2017-Mar-27 05:33S 29°52' E 031°02'0 0.0
2017-Mar-27 04:33S 29°52' E 031°02'0 0.0
2017-Mar-27 03:33S 29°52' E 031°02'0 0.0
2017-Mar-27 02:30S 29°52' E 031°02'0 0.0
2017-Mar-27 01:33S 29°52' E 031°02'3 3.3
2017-Mar-27 00:33S 29°50' E 031°05'4 3.6
2017-Mar-26 23:33S 29°50' E 031°09'1 1.1
2017-Mar-26 22:33S 29°49' E 031°09'1 1.0
2017-Mar-26 21:33S 29°48' E 031°08'0 0.4
2017-Mar-26 20:33S 29°49' E 031°08'1 1.4
2017-Mar-26 19:33S 29°49' E 031°10'6 6.3
2017-Mar-26 18:33S 29°47' E 031°17'1010.2
2017-Mar-26 17:33S 29°44' E 031°28'1212.4
2017-Mar-26 16:33S 29°39' E 031°41'1413.6
2017-Mar-26 15:33S 29°28' E 031°50'1312.8
2017-Mar-26 14:33S 29°17' E 031°58'1412.9
2017-Mar-26 13:30S 29°05' E 032°06'1212.8
2017-Mar-26 12:33S 28°54' E 032°12'1110.6
2017-Mar-26 11:33S 28°48' E 032°02'0 0.3
2017-Mar-26 10:31S 28°48' E 032°02'0 0.0
2017-Mar-26 09:31S 28°48' E 032°02'0 0.0
2017-Mar-26 08:31S 28°48' E 032°02'0 0.0
2017-Mar-26 07:31S 28°48' E 032°02'0 0.0
2017-Mar-26 06:32S 28°48' E 032°02'0 0.0
2017-Mar-26 05:31S 28°48' E 032°02'0 0.0
2017-Mar-26 04:31S 28°48' E 032°02'0 0.0
2017-Mar-26 03:31S 28°48' E 032°02'0 0.0
2017-Mar-26 02:31S 28°48' E 032°02'0 0.0
2017-Mar-26 01:31S 28°48' E 032°02'0 0.0
2017-Mar-26 00:31S 28°48' E 032°02'0 0.0
2017-Mar-25 23:31S 28°48' E 032°02'0 0.0
2017-Mar-25 22:31S 28°48' E 032°02'0 0.0
2017-Mar-25 21:32S 28°48' E 032°02'0 0.0
2017-Mar-25 20:31S 28°48' E 032°02'0 0.0
2017-Mar-25 19:31S 28°48' E 032°02'0 0.0
2017-Mar-25 18:32S 28°48' E 032°02'0 0.0
2017-Mar-25 17:31S 28°48' E 032°02'0 0.0
2017-Mar-25 16:31S 28°48' E 032°02'0 0.0
2017-Mar-25 15:31S 28°48' E 032°02'0 0.0
2017-Mar-25 14:31S 28°48' E 032°02'0 0.0
2017-Mar-25 13:31S 28°48' E 032°02'0 0.0
2017-Mar-25 12:31S 28°48' E 032°02'0 0.0
2017-Mar-25 11:25S 28°48' E 032°02'0 0.0
2017-Mar-25 10:31S 28°48' E 032°02'0 0.0
2017-Mar-25 09:31S 28°48' E 032°02'0 0.0
2017-Mar-25 08:31S 28°48' E 032°02'0 0.0
2017-Mar-25 07:31S 28°48' E 032°02'  
Track history (hours):
 
Tides and Currents Weather Stations Pressure Air Temp Water Temp Dewpoint Dewpoint Depression Visibility Wind Speed Wind Dir Waves Ship Positions

Endeavour

Operator: Lindblad Expeditions

Last reported at 2017-Apr-04 07:31 UTC. Time now 2017-Apr-24 11:18 UTC.
Position S 34°26' E 018°12'.
Warning: this ship's position is 20 days out of date.

Length 190 m; draft 11.8 m.

Type: Cargo ship. MMSI: 311000239.

Date/timePositionNaut miles runAvg speedWind from/ knotsBaromVisibWave heightAir tempDewpointWater temp
2017-Apr-04 07:31S 34°26' E 018°12'312.6
2017-Apr-04 07:15S 34°23' E 018°09'312.4
2017-Apr-04 07:00S 34°21' E 018°07'612.3
2017-Apr-04 06:30S 34°15' E 018°03'1012.0
2017-Apr-04 05:42S 34°06' E 018°01'312.2
2017-Apr-04 05:28S 34°03' E 018°01'712.9
2017-Apr-04 04:55S 33°56' E 017°59'  
2017-Mar-30 20:28S 33°07' E 017°39'2 0.8
2017-Mar-30 18:30S 33°09' E 017°39'1 0.8
2017-Mar-30 17:27S 33°09' E 017°39'910.0
2017-Mar-30 16:33S 33°11' E 017°49'1712.7
2017-Mar-30 15:11S 33°28' E 017°56'812.7
2017-Mar-30 14:33S 33°35' E 017°51'1211.9
2017-Mar-30 13:33S 33°47' E 017°50'1212.4
2017-Mar-30 12:33S 33°58' E 017°54'7311.7
2017-Mar-30 06:19S 34°52' E 018°53'  
2017-Mar-28 02:04S 30°54' E 030°56'713.2
2017-Mar-28 01:34S 30°47' E 030°59'1313.0
2017-Mar-28 00:33S 30°35' E 031°05'1312.6
2017-Mar-27 23:33S 30°24' E 031°11'1212.0
2017-Mar-27 22:33S 30°13' E 031°16'1212.5
2017-Mar-27 21:33S 30°01' E 031°22'9 9.5
2017-Mar-27 20:33S 29°53' E 031°18'1212.3
2017-Mar-27 19:33S 29°51' E 031°04'2 2.3
2017-Mar-27 18:33S 29°52' E 031°02'0 0.0
2017-Mar-27 17:33S 29°52' E 031°02'0 0.0
2017-Mar-27 16:33S 29°52' E 031°02'0 0.0
2017-Mar-27 15:33S 29°52' E 031°02'0 0.0
2017-Mar-27 14:33S 29°52' E 031°02'0 0.0
2017-Mar-27 13:33S 29°52' E 031°02'0 0.0
2017-Mar-27 12:30S 29°52' E 031°02'0 0.0
2017-Mar-27 11:30S 29°52' E 031°02'0 0.0
2017-Mar-27 10:33S 29°52' E 031°02'0 0.0
2017-Mar-27 09:33S 29°52' E 031°02'0 0.0
2017-Mar-27 08:33S 29°52' E 031°02'0 0.0
2017-Mar-27 07:33S 29°52' E 031°02'0 0.0
2017-Mar-27 06:33S 29°52' E 031°02'0 0.0
2017-Mar-27 05:33S 29°52' E 031°02'0 0.0
2017-Mar-27 04:33S 29°52' E 031°02'0 0.0
2017-Mar-27 03:33S 29°52' E 031°02'0 0.0
2017-Mar-27 02:30S 29°52' E 031°02'0 0.0
2017-Mar-27 01:33S 29°52' E 031°02'3 3.3
2017-Mar-27 00:33S 29°50' E 031°05'4 3.6
2017-Mar-26 23:33S 29°50' E 031°09'1 1.1
2017-Mar-26 22:33S 29°49' E 031°09'1 1.0
2017-Mar-26 21:33S 29°48' E 031°08'0 0.4
2017-Mar-26 20:33S 29°49' E 031°08'1 1.4
2017-Mar-26 19:33S 29°49' E 031°10'6 6.3
2017-Mar-26 18:33S 29°47' E 031°17'1010.2
2017-Mar-26 17:33S 29°44' E 031°28'1212.4
2017-Mar-26 16:33S 29°39' E 031°41'1413.6
2017-Mar-26 15:33S 29°28' E 031°50'1312.8
2017-Mar-26 14:33S 29°17' E 031°58'1412.9
2017-Mar-26 13:30S 29°05' E 032°06'1212.8
2017-Mar-26 12:33S 28°54' E 032°12'1110.6
2017-Mar-26 11:33S 28°48' E 032°02'0 0.3
2017-Mar-26 10:31S 28°48' E 032°02'0 0.0
2017-Mar-26 09:31S 28°48' E 032°02'0 0.0
2017-Mar-26 08:31S 28°48' E 032°02'0 0.0
2017-Mar-26 07:31S 28°48' E 032°02'0 0.0
2017-Mar-26 06:32S 28°48' E 032°02'0 0.0
2017-Mar-26 05:31S 28°48' E 032°02'0 0.0
2017-Mar-26 04:31S 28°48' E 032°02'0 0.0
2017-Mar-26 03:31S 28°48' E 032°02'0 0.0
2017-Mar-26 02:31S 28°48' E 032°02'0 0.0
2017-Mar-26 01:31S 28°48' E 032°02'0 0.0
2017-Mar-26 00:31S 28°48' E 032°02'0 0.0
2017-Mar-25 23:31S 28°48' E 032°02'0 0.0
2017-Mar-25 22:31S 28°48' E 032°02'0 0.0
2017-Mar-25 21:32S 28°48' E 032°02'0 0.0
2017-Mar-25 20:31S 28°48' E 032°02'0 0.0
2017-Mar-25 19:31S 28°48' E 032°02'0 0.0
2017-Mar-25 18:32S 28°48' E 032°02'0 0.0
2017-Mar-25 17:31S 28°48' E 032°02'0 0.0
2017-Mar-25 16:31S 28°48' E 032°02'0 0.0
2017-Mar-25 15:31S 28°48' E 032°02'0 0.0
2017-Mar-25 14:31S 28°48' E 032°02'0 0.0
2017-Mar-25 13:31S 28°48' E 032°02'0 0.0
2017-Mar-25 12:31S 28°48' E 032°02'0 0.0
2017-Mar-25 11:25S 28°48' E 032°02'0 0.0
2017-Mar-25 10:31S 28°48' E 032°02'0 0.0
2017-Mar-25 09:31S 28°48' E 032°02'0 0.0
2017-Mar-25 08:31S 28°48' E 032°02'0 0.0
2017-Mar-25 07:31S 28°48' E 032°02'  

Dump ship's entire track history